Time;durP1;ratioP1;P1;durP2;ratioP2;P2;SDS_P1;SDS_P2;PMS_P1;PMS_P2;Temp;Humidity;BMP_temperature;BMP_pressure;BME280_temperature;BME280_humidity;BME280_pressure;Samples;Min_cycle;Max_cycle;Signal;HPM_P1;HPM_P2
2022/09/07 00:01:30;;;;;;;5.60;1.47;;;23.70;99.90;;;;;;5075780;28;20199;-69
2022/09/07 00:03:58;;;;;;;3.90;1.73;;;23.40;99.90;;;;;;5075869;28;20175;-74
2022/09/07 00:06:33;;;;;;;2.67;0.60;;;23.10;99.90;;;;;;5076069;28;20648;-70
2022/09/07 00:09:02;;;;;;;5.80;1.10;;;;;;;;;;5075821;28;20186;-70
2022/09/07 00:11:29;;;;;;;4.77;0.90;;;;;;;;;;5074501;28;20232;-69
2022/09/07 00:13:59;;;;;;;3.60;1.20;;;;;;;;;;5075909;28;20188;-70
2022/09/07 00:16:31;;;;;;;6.90;1.53;;;22.00;99.90;;;;;;5074429;28;20332;-69
2022/09/07 00:19:01;;;;;;;5.73;1.40;;;22.10;99.90;;;;;;5075534;28;20244;-73
2022/09/07 00:21:29;;;;;;;5.30;1.60;;;22.20;99.90;;;;;;5075528;28;20204;-68
2022/09/07 00:24:02;;;;;;;3.93;1.27;;;21.20;99.90;;;;;;5075553;28;20581;-69
2022/09/07 00:26:30;;;;;;;2.83;1.10;;;21.90;99.90;;;;;;5074503;28;20181;-75
2022/09/07 00:29:03;;;;;;;3.73;1.20;;;22.40;99.90;;;;;;5075562;28;20180;-74
2022/09/07 00:31:31;;;;;;;6.33;1.70;;;22.00;99.90;;;;;;5075823;28;20176;-68
2022/09/07 00:34:00;;;;;;;3.67;1.40;;;21.50;99.90;;;;;;5075471;28;20179;-75
2022/09/07 00:36:30;;;;;;;4.93;1.60;;;21.60;99.90;;;;;;5075246;28;20259;-76
2022/09/07 00:39:00;;;;;;;5.60;1.33;;;21.20;99.90;;;;;;5075353;28;20190;-68
2022/09/07 00:41:28;;;;;;;8.47;1.70;;;21.60;99.90;;;;;;5073685;28;20238;-69
2022/09/07 00:44:19;;;;;;;3.97;1.30;;;22.20;99.90;;;;;;5073470;28;20644;-72
2022/09/07 00:46:46;;;;;;;5.60;1.30;;;22.60;99.90;;;;;;5073676;28;20198;-71
2022/09/07 00:49:22;;;;;;;3.40;1.30;;;22.60;99.90;;;;;;5073860;28;20240;-69
2022/09/07 00:51:58;;;;;;;4.63;1.27;;;21.50;99.90;;;;;;5074686;28;20587;-70
2022/09/07 00:54:31;;;;;;;4.73;1.40;;;21.20;99.90;;;;;;5073693;28;20640;-70
2022/09/07 00:56:59;;;;;;;4.07;1.30;;;21.50;99.90;;;;;;5074604;28;20188;-68
2022/09/07 00:59:31;;;;;;;3.10;1.43;;;21.20;99.90;;;;;;5073714;28;20621;-70
2022/09/07 01:02:02;;;;;;;2.33;1.30;;;20.70;99.90;;;;;;5074453;28;20284;-70
2022/09/07 01:04:31;;;;;;;2.37;1.50;;;20.00;99.90;;;;;;5074631;28;20621;-70
2022/09/07 01:07:02;;;;;;;5.93;1.40;;;19.50;99.90;;;;;;5073581;28;20233;-68
2022/09/07 01:09:31;;;;;;;4.57;1.37;;;19.10;99.90;;;;;;5072898;28;20266;-69
2022/09/07 01:12:00;;;;;;;4.10;1.33;;;18.90;99.90;;;;;;5062130;28;20751;-69
2022/09/07 01:14:32;;;;;;;3.63;1.07;;;19.70;99.90;;;;;;5055669;28;20655;-69
2022/09/07 01:17:12;;;;;;;4.10;1.20;;;21.10;99.90;;;;;;5058893;28;20219;-70
2022/09/07 01:20:07;;;;;;;2.97;1.27;;;22.50;99.90;;;;;;5070054;28;20217;-70
2022/09/07 01:22:57;;;;;;;2.43;1.10;;;22.90;99.90;;;;;;5072342;28;20316;-70
2022/09/07 01:26:01;;;;;;;5.40;1.00;;;23.80;99.90;;;;;;5072326;28;20539;-70
2022/09/07 01:28:33;;;;;;;3.33;1.43;;;24.60;99.90;;;;;;5072385;28;20180;-69
2022/09/07 01:31:18;;;;;;;2.43;1.03;;;24.30;99.90;;;;;;5052661;28;20191;-69
2022/09/07 01:34:04;;;;;;;3.97;1.13;;;23.70;99.90;;;;;;5052438;28;20177;-70
2022/09/07 01:36:57;;;;;;;2.67;1.30;;;23.80;99.90;;;;;;5052674;28;20222;-70
2022/09/07 01:39:36;;;;;;;2.30;1.07;;;23.10;99.90;;;;;;5052401;28;20552;-70
2022/09/07 01:42:12;;;;;;;4.33;1.20;;;23.30;99.90;;;;;;5052200;28;20640;-70
2022/09/07 01:44:56;;;;;;;5.90;1.63;;;23.30;99.90;;;;;;5052308;28;20179;-70
2022/09/07 01:47:42;;;;;;;3.73;1.17;;;23.00;99.90;;;;;;5052248;28;20179;-70
2022/09/07 01:50:15;;;;;;;5.53;1.40;;;22.60;99.90;;;;;;5052356;28;20640;-70
2022/09/07 01:53:01;;;;;;;4.67;1.43;;;22.40;99.90;;;;;;5051782;28;20232;-69
2022/09/07 01:55:35;;;;;;;2.57;1.13;;;21.90;99.90;;;;;;5050923;28;20218;-70
2022/09/07 01:58:24;;;;;;;5.50;1.50;;;21.60;99.90;;;;;;5052076;28;20180;-70
2022/09/07 02:00:57;;;;;;;4.10;1.47;;;20.50;99.90;;;;;;5051818;28;20649;-69
2022/09/07 02:03:38;;;;;;;3.77;1.17;;;20.30;99.90;;;;;;5051938;28;20273;-69
2022/09/07 02:06:29;;;;;;;4.00;1.77;;;20.30;99.90;;;;;;5051726;28;20241;-68
2022/09/07 02:09:04;;;;;;;9.30;4.47;;;19.90;99.90;;;;;;5051619;28;20183;-69
2022/09/07 02:11:43;;;;;;;3.67;1.67;;;20.40;99.90;;;;;;5051903;28;20263;-70
2022/09/07 02:14:35;;;;;;;2.73;1.33;;;21.00;99.90;;;;;;5051829;28;20180;-69
2022/09/07 02:17:06;;;;;;;4.57;1.67;;;21.70;99.90;;;;;;5051744;28;20669;-70
2022/09/07 02:19:42;;;;;;;3.70;1.87;;;21.80;99.90;;;;;;5051657;28;20168;-70
2022/09/07 02:22:13;;;;;;;4.00;1.70;;;21.70;99.90;;;;;;5051478;28;20387;-69
2022/09/07 02:24:46;;;;;;;2.37;1.30;;;22.70;99.90;;;;;;5051794;28;20631;-69
2022/09/07 02:27:18;;;;;;;4.20;1.50;;;22.90;99.90;;;;;;5051817;28;20652;-69
2022/09/07 02:29:46;;;;;;;4.13;1.60;;;22.70;99.90;;;;;;5051480;28;20175;-70
2022/09/07 02:32:13;;;;;;;2.70;1.30;;;22.40;99.90;;;;;;5051893;28;20186;-69
2022/09/07 02:34:40;;;;;;;7.53;1.53;;;21.20;99.90;;;;;;5051574;28;20243;-69
2022/09/07 02:37:09;;;;;;;3.10;1.63;;;20.80;99.90;;;;;;5053844;28;20192;-69
2022/09/07 02:39:37;;;;;;;6.13;1.83;;;21.30;99.90;;;;;;5068362;28;20191;-68
2022/09/07 02:42:04;;;;;;;3.17;1.10;;;21.90;99.90;;;;;;5071156;28;20223;-69
2022/09/07 02:44:35;;;;;;;2.40;1.20;;;21.80;99.90;;;;;;5071414;28;20224;-70
2022/09/07 02:47:26;;;;;;;3.73;1.40;;;22.50;99.90;;;;;;5071151;28;20776;-69
2022/09/07 02:50:11;;;;;;;3.30;1.50;;;23.50;99.90;;;;;;5071418;28;20178;-70
2022/09/07 02:53:14;;;;;;;2.63;1.40;;;23.90;99.90;;;;;;5071499;28;20187;-68
2022/09/07 02:56:23;;;;;;;5.93;1.83;;;23.70;99.90;;;;;;5041567;28;20634;-70
2022/09/07 02:59:08;;;;;;;4.40;1.40;;;22.70;99.90;;;;;;5015131;28;20612;-69
2022/09/07 03:01:50;;;;;;;2.03;1.30;;;22.10;99.90;;;;;;5009315;28;20302;-69
2022/09/07 03:04:25;;;;;;;4.77;1.73;;;22.60;99.90;;;;;;5032394;28;20718;-69
2022/09/07 03:07:03;;;;;;;3.23;1.83;;;22.60;99.90;;;;;;5065025;28;20704;-70
2022/09/07 03:09:36;;;;;;;4.90;1.83;;;23.20;99.90;;;;;;5071193;28;20641;-70
2022/09/07 03:12:04;;;;;;;4.60;1.40;;;;;;;;;;5071273;28;20576;-70
2022/09/07 03:14:32;;;;;;;5.37;1.33;;;23.00;99.90;;;;;;5070990;28;20263;-70
2022/09/07 03:17:01;;;;;;;4.13;1.47;;;23.40;99.90;;;;;;5069499;28;20237;-69
2022/09/07 03:19:28;;;;;;;3.37;1.50;;;23.40;99.90;;;;;;5074607;28;20172;-70
2022/09/07 03:21:56;;;;;;;5.80;1.30;;;23.30;99.90;;;;;;5074299;28;20233;-69
2022/09/07 03:24:23;;;;;;;5.10;1.50;;;22.90;99.90;;;;;;5074342;28;20216;-69
2022/09/07 03:26:51;;;;;;;3.57;1.57;;;23.40;99.90;;;;;;5073190;28;20176;-70
2022/09/07 03:29:19;;;;;;;4.97;1.40;;;23.80;99.90;;;;;;5074679;28;20266;-70
2022/09/07 03:31:46;;;;;;;4.53;1.10;;;24.30;99.90;;;;;;5074636;28;20210;-69
2022/09/07 03:34:15;;;;;;;3.37;1.20;;;24.70;99.90;;;;;;5074963;28;20183;-69
2022/09/07 03:36:42;;;;;;;1.27;1.00;;;24.50;98.90;;;;;;5069739;28;20187;-69
2022/09/07 03:39:12;;;;;;;7.50;1.13;;;23.70;99.90;;;;;;5062344;28;20263;-70
2022/09/07 03:41:40;;;;;;;3.27;0.80;;;23.80;99.90;;;;;;5054515;28;20204;-69
2022/09/07 03:44:08;;;;;;;2.70;0.77;;;23.90;99.90;;;;;;5054674;28;20176;-69
2022/09/07 03:46:35;;;;;;;3.53;1.23;;;23.70;96.30;;;;;;5070401;28;20183;-69
2022/09/07 03:49:03;;;;;;;6.00;1.50;;;23.70;99.90;;;;;;5073920;28;20194;-68
2022/09/07 03:51:30;;;;;;;4.33;1.03;;;22.80;99.90;;;;;;5074232;28;20195;-69
2022/09/07 03:53:59;;;;;;;3.27;1.57;;;22.70;99.90;;;;;;5074418;28;20178;-69
2022/09/07 03:56:26;;;;;;;1.87;1.10;;;22.00;99.90;;;;;;5074111;28;20181;-68
2022/09/07 03:58:55;;;;;;;5.83;1.20;;;21.60;99.90;;;;;;5074186;28;20181;-70
2022/09/07 04:01:24;;;;;;;1.57;0.90;;;21.40;99.90;;;;;;5073816;28;20214;-69
2022/09/07 04:03:53;;;;;;;3.40;1.00;;;21.00;99.90;;;;;;5074304;28;20182;-70
2022/09/07 04:06:21;;;;;;;5.23;1.47;;;20.50;99.90;;;;;;5074045;28;20234;-71
2022/09/07 04:08:48;;;;;;;2.90;1.10;;;20.30;99.90;;;;;;5074016;28;20212;-69
2022/09/07 04:11:19;;;;;;;3.50;1.37;;;20.30;99.90;;;;;;5073353;28;20218;-68
2022/09/07 04:13:47;;;;;;;8.97;1.30;;;20.30;99.90;;;;;;5074065;28;20189;-69
2022/09/07 04:16:21;;;;;;;4.07;1.23;;;20.30;99.90;;;;;;5073623;28;20254;-69
2022/09/07 04:18:49;;;;;;;2.23;1.13;;;21.00;99.90;;;;;;5073887;28;20172;-70
2022/09/07 04:21:20;;;;;;;4.10;1.27;;;21.00;99.90;;;;;;5069974;28;20217;-70
2022/09/07 04:23:48;;;;;;;5.07;1.10;;;21.30;99.90;;;;;;5073398;28;20663;-70
2022/09/07 04:26:20;;;;;;;5.10;1.20;;;21.50;99.90;;;;;;5068776;28;20185;-70
2022/09/07 04:28:48;;;;;;;2.60;1.13;;;21.70;99.90;;;;;;5053521;28;20243;-71
2022/09/07 04:31:17;;;;;;;5.20;1.37;;;21.90;99.90;;;;;;5071245;28;20191;-70
2022/09/07 04:33:48;;;;;;;3.23;1.23;;;22.20;99.90;;;;;;5073771;28;20255;-70
2022/09/07 04:36:18;;;;;;;2.60;1.20;;;22.40;99.90;;;;;;5073761;28;20180;-70
2022/09/07 04:38:46;;;;;;;6.73;1.30;;;21.60;99.90;;;;;;5073523;28;20183;-70
2022/09/07 04:41:16;;;;;;;3.70;1.27;;;21.10;99.90;;;;;;5073338;28;20684;-69
2022/09/07 04:43:45;;;;;;;4.73;1.43;;;20.70;99.90;;;;;;5073635;28;20176;-69
2022/09/07 04:46:20;;;;;;;3.97;1.20;;;20.30;99.90;;;;;;5073328;28;20189;-70
2022/09/07 04:48:49;;;;;;;3.13;1.10;;;20.10;99.90;;;;;;5072789;28;20217;-70
2022/09/07 04:51:20;;;;;;;3.63;1.33;;;19.80;99.90;;;;;;5062375;28;20188;-70
2022/09/07 04:53:49;;;;;;;4.60;1.23;;;19.70;99.90;;;;;;5073237;28;20186;-69
2022/09/07 04:56:18;;;;;;;4.43;1.43;;;19.70;99.90;;;;;;5073403;28;20265;-70
2022/09/07 04:58:46;;;;;;;8.37;1.27;;;19.70;99.90;;;;;;5073183;28;20556;-70
2022/09/07 05:01:17;;;;;;;3.80;1.37;;;19.70;99.90;;;;;;5071920;28;20282;-70
2022/09/07 05:03:45;;;;;;;5.17;1.20;;;19.70;99.90;;;;;;5073226;28;20184;-69
2022/09/07 05:06:14;;;;;;;2.63;1.07;;;19.60;99.90;;;;;;5072795;28;20187;-68
2022/09/07 05:08:44;;;;;;;5.63;1.60;;;19.60;99.90;;;;;;5071684;28;20257;-69
2022/09/07 05:11:13;;;;;;;2.60;1.27;;;19.80;99.90;;;;;;5072688;28;20181;-69
2022/09/07 05:13:42;;;;;;;1.80;1.00;;;20.10;99.90;;;;;;5071286;28;20274;-70
2022/09/07 05:16:24;;;;;;;4.07;1.47;;;20.30;99.90;;;;;;5070713;28;20634;-70
2022/09/07 05:18:54;;;;;;;5.23;1.10;;;20.50;99.90;;;;;;5071550;28;20191;-70
2022/09/07 05:21:25;;;;;;;5.37;3.03;;;20.30;99.90;;;;;;5072660;28;20291;-70
2022/09/07 05:23:54;;;;;;;5.83;1.63;;;20.30;99.90;;;;;;5054999;28;20254;-69
2022/09/07 05:26:27;;;;;;;5.23;0.97;;;20.40;99.90;;;;;;5071421;28;20212;-70
2022/09/07 05:28:55;;;;;;;4.53;2.30;;;20.30;99.90;;;;;;5057495;28;20269;-71
2022/09/07 05:31:23;;;;;;;2.37;1.00;;;20.40;99.90;;;;;;5052764;28;20208;-69
2022/09/07 05:33:53;;;;;;;3.30;1.03;;;20.50;99.90;;;;;;5059452;28;20180;-70
2022/09/07 05:36:24;;;;;;;3.50;1.30;;;20.20;99.90;;;;;;5072563;28;20237;-71
2022/09/07 05:38:52;;;;;;;2.10;0.70;;;19.70;99.90;;;;;;5055230;28;20182;-68
2022/09/07 05:41:24;;;;;;;3.20;1.00;;;19.40;99.90;;;;;;5071025;28;20239;-69
2022/09/07 05:43:53;;;;;;;5.77;1.10;;;19.30;99.90;;;;;;5073625;28;20191;-72
2022/09/07 05:46:21;;;;;;;6.50;1.10;;;19.10;99.90;;;;;;5072514;28;20592;-71
2022/09/07 05:48:49;;;;;;;2.33;1.07;;;19.00;99.90;;;;;;5066884;28;20188;-70
2022/09/07 05:51:17;;;;;;;3.13;1.40;;;19.00;99.90;;;;;;5072677;28;20192;-69
2022/09/07 05:53:50;;;;;;;5.00;1.43;;;19.00;99.90;;;;;;5055842;28;20180;-70
2022/09/07 05:56:21;;;;;;;4.53;1.23;;;19.00;99.90;;;;;;5073794;28;20174;-71
2022/09/07 05:58:50;;;;;;;11.23;1.70;;;19.00;99.90;;;;;;5072498;28;20184;-69
2022/09/07 06:01:18;;;;;;;3.83;1.20;;;19.20;99.90;;;;;;5073514;28;20237;-70
2022/09/07 06:03:45;;;;;;;6.30;0.93;;;19.20;99.90;;;;;;5073101;28;20194;-72
2022/09/07 06:06:23;;;;;;;5.43;1.43;;;19.20;99.90;;;;;;5073665;28;20680;-70
2022/09/07 06:08:56;;;;;;;2.80;1.20;;;19.40;99.90;;;;;;5073637;28;20232;-74
2022/09/07 06:11:26;;;;;;;3.40;1.10;;;19.30;99.90;;;;;;5073785;28;20633;-76
2022/09/07 06:13:53;;;;;;;2.03;0.93;;;19.30;99.90;;;;;;5073116;28;20210;-69
2022/09/07 06:16:22;;;;;;;5.87;1.10;;;19.20;99.90;;;;;;5073531;28;20180;-71
2022/09/07 06:18:50;;;;;;;2.13;1.20;;;19.00;99.90;;;;;;5074104;28;20274;-69
2022/09/07 06:21:24;;;;;;;3.93;1.30;;;18.80;99.90;;;;;;5073590;28;20269;-69
2022/09/07 06:23:52;;;;;;;2.40;1.10;;;18.70;99.90;;;;;;5073216;28;20223;-69
2022/09/07 06:26:34;;;;;;;4.00;1.30;;;18.50;99.90;;;;;;5073203;28;20175;-70
2022/09/07 06:29:03;;;;;;;3.57;1.40;;;18.40;99.90;;;;;;5073676;28;20176;-75
2022/09/07 06:31:32;;;;;;;4.57;1.00;;;18.10;99.90;;;;;;5073444;28;20214;-69
2022/09/07 06:33:59;;;;;;;4.27;1.50;;;18.00;99.90;;;;;;5073238;28;20172;-73
2022/09/07 06:36:28;;;;;;;8.23;1.20;;;17.90;99.90;;;;;;5072023;28;20553;-70
2022/09/07 06:39:02;;;;;;;2.70;1.27;;;17.80;99.90;;;;;;5073070;28;20197;-68
2022/09/07 06:41:30;;;;;;;2.40;1.03;;;17.70;99.90;;;;;;5072824;28;20203;-69
2022/09/07 06:43:58;;;;;;;4.90;1.10;;;17.70;99.90;;;;;;5073108;28;20188;-70
2022/09/07 06:46:26;;;;;;;3.27;1.07;;;17.80;99.90;;;;;;5073277;28;20230;-72
2022/09/07 06:48:55;;;;;;;3.93;1.13;;;17.80;99.90;;;;;;5073094;28;20538;-69
2022/09/07 06:51:28;;;;;;;7.77;1.40;;;17.80;99.90;;;;;;5073059;28;20541;-75
2022/09/07 06:54:00;;;;;;;6.20;1.60;;;17.80;99.90;;;;;;5076075;28;20182;-70
2022/09/07 06:56:28;;;;;;;9.27;2.13;;;17.70;99.90;;;;;;5076366;28;20209;-70
2022/09/07 06:59:00;;;;;;;2.27;1.03;;;17.70;99.90;;;;;;5077730;28;20183;-70
2022/09/07 07:01:36;;;;;;;4.40;1.87;;;17.60;99.90;;;;;;5077092;28;20230;-73
2022/09/07 07:04:04;;;;;;;5.53;1.03;;;17.50;99.90;;;;;;5076240;28;20176;-70
2022/09/07 07:06:43;;;;;;;2.73;1.20;;;17.40;99.90;;;;;;5059007;28;20202;-69
2022/09/07 07:09:13;;;;;;;4.40;1.70;;;17.30;99.90;;;;;;5076926;28;20215;-69
2022/09/07 07:11:42;;;;;;;3.50;1.13;;;17.20;99.90;;;;;;5076879;28;20201;-70
2022/09/07 07:14:15;;;;;;;5.50;1.50;;;17.20;99.90;;;;;;5076847;28;20176;-70
2022/09/07 07:16:43;;;;;;;2.53;0.87;;;17.10;99.90;;;;;;5075467;28;20657;-70
2022/09/07 07:19:13;;;;;;;6.87;0.90;;;17.00;99.90;;;;;;5076515;28;20188;-69
2022/09/07 07:21:42;;;;;;;2.57;1.30;;;16.90;99.90;;;;;;5076357;28;20563;-70
2022/09/07 07:24:12;;;;;;;10.10;1.33;;;16.90;99.90;;;;;;5076977;28;20183;-70
2022/09/07 07:26:47;;;;;;;7.10;1.20;;;16.80;99.90;;;;;;5075528;28;20207;-70
2022/09/07 07:29:16;;;;;;;4.03;1.50;;;16.70;99.90;;;;;;5076878;28;20291;-70
2022/09/07 07:31:48;;;;;;;5.43;1.70;;;16.60;99.90;;;;;;5075108;28;20186;-70
2022/09/07 07:34:16;;;;;;;2.40;0.97;;;16.50;99.90;;;;;;5076798;28;20172;-70
2022/09/07 07:36:46;;;;;;;3.93;1.33;;;16.40;99.90;;;;;;5076472;28;20186;-72
2022/09/07 07:39:14;;;;;;;3.30;1.27;;;16.40;99.90;;;;;;5076556;28;20191;-69
2022/09/07 07:41:43;;;;;;;3.33;1.20;;;16.40;99.90;;;;;;5076110;28;20661;-73
2022/09/07 07:44:12;;;;;;;2.80;1.07;;;16.30;99.90;;;;;;5075221;28;20633;-69
2022/09/07 07:46:40;;;;;;;5.40;1.30;;;16.20;99.90;;;;;;5076176;28;20185;-70
2022/09/07 07:49:10;;;;;;;5.03;1.37;;;16.10;99.90;;;;;;5076367;28;20238;-69
2022/09/07 07:51:38;;;;;;;2.17;1.10;;;16.10;99.90;;;;;;5076153;28;20628;-69
2022/09/07 07:54:05;;;;;;;3.30;1.20;;;16.00;99.90;;;;;;5076029;28;20176;-69
2022/09/07 07:56:32;;;;;;;2.87;0.90;;;16.00;99.90;;;;;;5076182;28;20683;-69
2022/09/07 07:59:00;;;;;;;2.43;1.23;;;16.00;99.90;;;;;;5076100;28;20180;-69
2022/09/07 08:01:28;;;;;;;3.03;1.30;;;15.90;99.90;;;;;;5074487;28;20220;-69
2022/09/07 08:03:56;;;;;;;5.77;1.30;;;15.90;99.90;;;;;;5075544;28;20172;-69
2022/09/07 08:06:23;;;;;;;3.50;1.10;;;15.80;99.90;;;;;;5076028;28;20232;-70
2022/09/07 08:08:51;;;;;;;2.97;1.40;;;15.90;99.90;;;;;;5074674;28;20225;-68
2022/09/07 08:11:20;;;;;;;3.63;1.33;;;15.80;99.90;;;;;;5075924;28;20186;-69
2022/09/07 08:13:49;;;;;;;4.37;1.20;;;15.80;99.90;;;;;;5075759;28;20207;-69
2022/09/07 08:16:17;;;;;;;4.33;1.47;;;15.70;99.90;;;;;;5075708;28;20187;-69
2022/09/07 08:18:45;;;;;;;4.73;1.60;;;15.70;99.90;;;;;;5075682;28;20180;-70
2022/09/07 08:21:16;;;;;;;8.87;1.87;;;15.80;99.90;;;;;;5075445;28;20180;-69
2022/09/07 08:23:44;;;;;;;5.83;1.50;;;15.70;99.90;;;;;;5075801;28;20228;-68
2022/09/07 08:26:11;;;;;;;3.33;1.33;;;15.70;99.90;;;;;;5075913;28;20176;-69
2022/09/07 08:28:44;;;;;;;10.73;1.43;;;15.60;99.90;;;;;;5075577;28;20180;-69
2022/09/07 08:31:14;;;;;;;6.67;1.60;;;15.60;99.90;;;;;;5075930;28;20267;-72
2022/09/07 08:33:44;;;;;;;6.17;1.20;;;15.60;99.90;;;;;;5075121;28;20553;-69
2022/09/07 08:36:20;;;;;;;3.80;1.30;;;15.50;99.90;;;;;;5075368;28;20164;-69
2022/09/07 08:38:48;;;;;;;4.17;1.30;;;15.50;99.90;;;;;;5074341;28;20201;-70
2022/09/07 08:41:39;;;;;;;3.80;1.10;;;15.50;99.90;;;;;;5075603;28;20199;-70
2022/09/07 08:44:31;;;;;;;4.70;1.17;;;15.50;99.90;;;;;;5075732;28;20274;-70
2022/09/07 08:47:02;;;;;;;3.17;1.30;;;15.50;99.90;;;;;;5075084;28;20182;-69
2022/09/07 08:49:38;;;;;;;6.37;1.47;;;15.50;99.90;;;;;;5075580;28;20644;-70
2022/09/07 08:52:14;;;;;;;3.00;1.40;;;15.40;99.90;;;;;;5075299;28;20738;-70
2022/09/07 08:54:49;;;;;;;5.30;1.20;;;15.30;99.90;;;;;;5075392;28;20207;-70
2022/09/07 08:57:28;;;;;;;3.27;1.30;;;15.30;99.90;;;;;;5074691;28;20589;-69
2022/09/07 09:00:06;;;;;;;3.20;1.20;;;15.30;99.90;;;;;;5075081;28;20512;-69
2022/09/07 09:02:37;;;;;;;2.97;1.00;;;15.20;99.90;;;;;;5074560;28;20310;-70
2022/09/07 09:05:48;;;;;;;7.70;1.70;;;15.30;99.90;;;;;;5074996;28;20507;-69
2022/09/07 09:08:47;;;;;;;4.63;1.47;;;15.20;99.90;;;;;;5013096;28;20186;-70
2022/09/07 09:11:43;;;;;;;9.07;1.70;;;15.20;99.90;;;;;;5013112;28;20276;-69
2022/09/07 09:14:47;;;;;;;3.60;1.77;;;15.20;99.90;;;;;;5074389;28;20188;-69
2022/09/07 09:17:29;;;;;;;8.00;1.47;;;15.10;99.90;;;;;;5072811;28;20187;-69
2022/09/07 09:20:23;;;;;;;3.30;1.73;;;15.10;99.90;;;;;;5074627;28;20194;-69
2022/09/07 09:23:16;;;;;;;4.87;1.67;;;15.00;99.90;;;;;;5074365;28;20231;-69
2022/09/07 09:26:20;;;;;;;6.20;1.53;;;14.90;99.90;;;;;;5074792;28;20289;-70
2022/09/07 09:29:07;;;;;;;7.87;1.87;;;14.80;99.90;;;;;;5074666;28;20172;-69
2022/09/07 09:31:35;;;;;;;7.13;1.60;;;14.80;99.90;;;;;;5074557;28;20180;-68
2022/09/07 09:34:30;;;;;;;3.80;1.20;;;14.70;99.90;;;;;;5074224;28;20271;-70
2022/09/07 09:37:01;;;;;;;5.97;1.83;;;14.70;99.90;;;;;;5073959;28;20194;-73
2022/09/07 09:39:35;;;;;;;5.50;2.00;;;14.60;99.90;;;;;;5074178;28;20175;-74
2022/09/07 09:42:14;;;;;;;7.03;2.07;;;14.70;99.90;;;;;;5072785;28;20321;-70
2022/09/07 09:44:43;;;;;;;6.40;2.07;;;14.60;99.90;;;;;;5074494;28;20180;-69
2022/09/07 09:47:34;;;;;;;4.63;1.87;;;14.60;99.90;;;;;;5074223;28;20176;-70
2022/09/07 09:50:06;;;;;;;6.60;2.30;;;14.60;99.90;;;;;;5073949;28;20657;-73
2022/09/07 09:52:35;;;;;;;8.73;2.70;;;14.60;99.90;;;;;;5074274;28;20179;-70
2022/09/07 09:55:07;;;;;;;4.90;1.60;;;14.60;99.90;;;;;;5074057;28;20258;-70
2022/09/07 09:57:52;;;;;;;6.10;1.70;;;14.60;99.90;;;;;;5073972;28;20633;-69
2022/09/07 10:00:23;;;;;;;4.60;1.70;;;14.60;99.90;;;;;;5073848;28;20180;-69
2022/09/07 10:03:17;;;;;;;5.47;1.57;;;14.50;99.90;;;;;;5073832;28;20300;-72
2022/09/07 10:05:53;;;;;;;7.90;2.10;;;14.50;99.90;;;;;;5073775;28;20296;-72
2022/09/07 10:08:57;;;;;;;3.77;1.90;;;14.40;99.90;;;;;;5073875;28;20183;-70
2022/09/07 10:11:47;;;;;;;4.97;2.60;;;14.30;99.90;;;;;;5073623;28;20184;-69
2022/09/07 10:14:39;;;;;;;8.97;2.17;;;14.30;99.90;;;;;;5073820;28;20177;-69
2022/09/07 10:17:29;;;;;;;5.27;2.23;;;14.20;99.90;;;;;;5070826;28;20180;-70
2022/09/07 10:20:22;;;;;;;5.57;2.37;;;14.10;99.90;;;;;;5072384;28;20179;-70
2022/09/07 10:22:52;;;;;;;8.83;2.67;;;14.00;99.90;;;;;;5073134;28;20235;-69
2022/09/07 10:25:46;;;;;;;11.33;2.73;;;14.10;99.90;;;;;;5073923;28;20251;-70
2022/09/07 10:28:24;;;;;;;11.17;3.03;;;14.00;99.90;;;;;;5074031;28;20581;-70
2022/09/07 10:31:06;;;;;;;10.43;3.10;;;14.10;99.90;;;;;;5073669;28;20197;-70
2022/09/07 10:34:39;;;;;;;8.93;2.87;;;14.10;99.90;;;;;;5073426;28;20198;-71
2022/09/07 10:37:20;;;;;;;6.97;2.60;;;14.10;99.90;;;;;;5072117;28;20671;-70
2022/09/07 10:39:52;;;;;;;7.83;2.67;;;14.10;99.90;;;;;;5073294;28;20181;-69
2022/09/07 10:42:45;;;;;;;7.33;2.50;;;14.10;99.90;;;;;;5073229;28;20680;-73
2022/09/07 10:45:54;;;;;;;7.00;2.23;;;14.10;99.90;;;;;;5073763;28;20262;-69
2022/09/07 10:48:51;;;;;;;7.17;1.90;;;14.10;99.90;;;;;;5011449;28;20178;-71
2022/09/07 10:51:38;;;;;;;8.77;2.13;;;14.00;99.90;;;;;;5012017;28;20178;-68
2022/09/07 10:54:27;;;;;;;2.97;2.40;;;13.90;99.90;;;;;;5057245;28;20184;-69
2022/09/07 10:57:01;;;;;;;7.23;2.23;;;13.90;99.90;;;;;;5073136;28;20556;-69
2022/09/07 10:59:43;;;;;;;10.37;2.53;;;13.90;99.90;;;;;;5073289;28;20221;-74
2022/09/07 11:02:25;;;;;;;7.07;2.20;;;13.90;99.90;;;;;;5071770;28;20207;-73
2022/09/07 11:05:29;;;;;;;6.57;2.57;;;13.90;99.90;;;;;;5073081;28;20561;-69
2022/09/07 11:11:35;;;;;;;7.93;2.90;;;13.80;99.90;;;;;;4991150;28;20215;-69
2022/09/07 11:14:14;;;;;;;9.13;2.33;;;13.80;99.90;;;;;;5072191;28;20244;-70
2022/09/07 11:17:00;;;;;;;6.50;2.60;;;13.70;99.90;;;;;;5072964;28;20266;-70
2022/09/07 11:19:41;;;;;;;6.07;2.40;;;13.70;99.90;;;;;;5073296;28;20171;-69
2022/09/07 11:22:19;;;;;;;6.87;2.03;;;13.70;99.90;;;;;;5072553;28;20224;-69
2022/09/07 11:24:56;;;;;;;7.87;2.07;;;13.70;99.90;;;;;;5073024;28;20202;-69
2022/09/07 11:27:31;;;;;;;4.53;2.10;;;13.60;99.90;;;;;;5073123;28;20182;-68
2022/09/07 11:30:22;;;;;;;7.90;2.40;;;13.60;99.90;;;;;;5071302;28;20236;-70
2022/09/07 11:33:17;;;;;;;8.43;2.40;;;13.60;99.90;;;;;;5072954;28;20227;-69
2022/09/07 11:36:02;;;;;;;4.57;1.93;;;13.60;99.90;;;;;;5072796;28;20206;-70
2022/09/07 11:38:35;;;;;;;5.73;2.20;;;13.60;99.90;;;;;;5071626;28;20204;-69
2022/09/07 11:41:28;;;;;;;9.60;2.90;;;13.60;99.90;;;;;;5076501;28;20278;-69
2022/09/07 11:43:58;;;;;;;7.83;2.30;;;13.50;99.90;;;;;;5073718;28;20209;-69
2022/09/07 11:46:44;;;;;;;4.00;2.47;;;13.50;99.90;;;;;;5076379;28;20263;-69
2022/09/07 11:49:20;;;;;;;6.33;2.50;;;13.40;99.90;;;;;;5076397;28;20192;-69
2022/09/07 11:52:10;;;;;;;9.53;3.27;;;13.40;99.90;;;;;;5076261;28;20224;-70
2022/09/07 11:54:47;;;;;;;5.50;2.43;;;13.40;99.90;;;;;;5076178;28;20233;-69
2022/09/07 11:57:43;;;;;;;8.03;2.63;;;13.30;99.90;;;;;;5076315;28;20203;-70
2022/09/07 12:00:22;;;;;;;5.27;2.50;;;13.30;99.90;;;;;;5022366;28;20194;-69
2022/09/07 12:03:13;;;;;;;5.30;2.63;;;13.30;99.90;;;;;;5058358;28;20575;-70
2022/09/07 12:06:05;;;;;;;6.87;3.03;;;13.30;99.90;;;;;;5076214;28;20222;-70
2022/09/07 12:08:41;;;;;;;7.07;2.30;;;13.30;99.90;;;;;;5076144;28;20633;-70
2022/09/07 12:11:46;;;;;;;6.03;2.63;;;13.30;99.90;;;;;;5075698;28;20175;-69
2022/09/07 12:14:19;;;;;;;4.57;2.47;;;13.30;99.90;;;;;;5066705;28;20274;-70
2022/09/07 12:17:05;;;;;;;6.87;2.40;;;13.30;99.90;;;;;;5076035;28;20699;-70
2022/09/07 12:19:32;;;;;;;12.03;3.30;;;13.30;99.90;;;;;;5076373;28;20179;-69
2022/09/07 12:22:00;;;;;;;8.23;2.73;;;13.30;99.90;;;;;;5075406;28;20262;-69
2022/09/07 12:24:53;;;;;;;8.33;3.03;;;13.30;99.90;;;;;;5074354;28;20564;-70
2022/09/07 12:27:20;;;;;;;5.33;2.70;;;13.30;99.90;;;;;;5075379;28;20175;-69
2022/09/07 12:29:58;;;;;;;5.97;2.83;;;13.20;99.90;;;;;;5075212;28;20265;-70
2022/09/07 12:32:55;;;;;;;7.70;2.93;;;13.20;99.90;;;;;;5075474;28;20184;-69
2022/09/07 12:35:31;;;;;;;7.43;3.60;;;13.20;99.90;;;;;;5075396;28;20188;-70
2022/09/07 12:38:01;;;;;;;8.83;3.13;;;13.20;99.90;;;;;;5075478;28;20179;-70
2022/09/07 12:40:32;;;;;;;6.40;3.40;;;13.10;99.90;;;;;;5075997;28;20176;-68
2022/09/07 12:43:14;;;;;;;4.83;3.10;;;13.10;99.90;;;;;;5075186;28;20256;-70
2022/09/07 12:45:42;;;;;;;6.30;3.00;;;13.10;99.90;;;;;;5075127;28;20644;-71
2022/09/07 12:48:15;;;;;;;6.73;3.13;;;13.10;99.90;;;;;;5075277;28;20261;-70
2022/09/07 12:51:03;;;;;;;9.47;3.10;;;13.00;99.90;;;;;;5072464;28;20179;-70
2022/09/07 12:53:59;;;;;;;4.93;3.00;;;13.00;99.90;;;;;;5075332;28;20512;-69
2022/09/07 12:56:48;;;;;;;4.53;3.20;;;12.90;99.90;;;;;;5074478;28;20667;-71
2022/09/07 12:59:34;;;;;;;6.80;3.43;;;12.80;99.90;;;;;;5066063;28;20190;-71
2022/09/07 13:02:19;;;;;;;11.37;3.53;;;12.80;99.90;;;;;;5067424;28;20252;-71
2022/09/07 13:05:00;;;;;;;9.77;3.40;;;12.70;99.90;;;;;;5071726;28;20179;-70
2022/09/07 13:08:03;;;;;;;8.27;3.40;;;12.50;99.90;;;;;;5074144;28;20206;-70
2022/09/07 13:10:36;;;;;;;6.00;3.50;;;12.50;99.90;;;;;;5064302;28;20184;-71
2022/09/07 13:13:13;;;;;;;9.57;3.63;;;12.50;99.90;;;;;;5070077;28;20706;-71
2022/09/07 13:15:48;;;;;;;7.43;3.63;;;12.50;99.90;;;;;;5068560;28;20188;-70
2022/09/07 13:18:27;;;;;;;6.13;2.93;;;12.40;99.90;;;;;;5063772;28;20704;-69
2022/09/07 13:21:10;;;;;;;9.93;3.67;;;12.40;99.90;;;;;;5072436;28;20228;-70
2022/09/07 13:23:50;;;;;;;6.53;3.53;;;12.30;99.90;;;;;;5073910;28;20264;-70
2022/09/07 13:26:50;;;;;;;5.83;3.53;;;12.30;99.90;;;;;;5074385;28;20174;-71
2022/09/07 13:29:22;;;;;;;6.87;4.30;;;12.30;99.90;;;;;;5071523;28;20225;-71
2022/09/07 13:31:49;;;;;;;8.50;4.23;;;12.20;99.90;;;;;;5070990;28;20190;-71
2022/09/07 13:34:37;;;;;;;6.53;3.53;;;12.20;99.90;;;;;;5074985;28;20654;-71
2022/09/07 13:37:14;;;;;;;7.37;3.83;;;12.20;99.90;;;;;;5074070;28;20182;-70